Time;durP1;ratioP1;P1;durP2;ratioP2;P2;SDS_P1;SDS_P2;PMS_P1;PMS_P2;Temp;Humidity;BMP_temperature;BMP_pressure;BME280_temperature;BME280_humidity;BME280_pressure;Samples;Min_cycle;Max_cycle;Signal;HPM_P1;HPM_P2
2022/04/04 00:00:21;;;;;;;10.40;4.43;;;;;;;;;;8298223;28;20038;-79
2022/04/04 00:04:39;;;;;;;8.48;4.53;;;;;;;;;;8319293;28;20175;-79
2022/04/04 00:08:42;;;;;;;10.70;4.72;;;;;;;;;;8331597;28;20041;-78
2022/04/04 00:12:46;;;;;;;12.82;5.05;;;;;;;;;;8295952;28;20065;-80
2022/04/04 00:16:48;;;;;;;7.63;4.57;;;;;;;;;;8280422;28;20054;-79
2022/04/04 00:20:51;;;;;;;10.73;4.68;;;;;;;;;;8280873;28;20050;-79
2022/04/04 00:24:55;;;;;;;9.68;4.47;;;;;;;;;;8293205;28;20482;-79
2022/04/04 00:28:59;;;;;;;11.32;4.88;;;;;;;;;;8297672;28;20452;-80
2022/04/04 00:33:02;;;;;;;10.23;5.03;;;;;;;;;;8265731;28;20054;-79
2022/04/04 00:37:05;;;;;;;11.00;5.38;;;;;;;;;;8265585;28;20058;-78
2022/04/04 00:41:09;;;;;;;10.63;5.50;;;;;;;;;;8266012;28;20050;-79
2022/04/04 00:45:13;;;;;;;13.25;4.70;;;;;;;;;;8265676;28;20052;-80
2022/04/04 00:49:16;;;;;;;12.00;5.60;;;;;;;;;;8265404;28;20101;-77
2022/04/04 00:53:18;;;;;;;13.50;5.60;;;;;;;;;;8265261;28;20493;-80
2022/04/04 00:57:21;;;;;;;9.63;4.47;;;;;;;;;;8265796;28;20039;-79
2022/04/04 01:01:25;;;;;;;11.02;5.78;;;;;;;;;;8265404;28;20046;-80
2022/04/04 01:05:28;;;;;;;9.85;4.95;;;;;;;;;;8265337;28;20046;-79
2022/04/04 01:09:31;;;;;;;9.73;4.68;;;;;;;;;;8265318;28;20061;-79
2022/04/04 01:13:34;;;;;;;11.75;4.93;;;;;;;;;;8265562;28;20058;-80
2022/04/04 01:17:38;;;;;;;10.93;4.90;;;;;;;;;;8265502;28;20053;-79
2022/04/04 01:21:40;;;;;;;9.80;5.30;;;;;;;;;;8265066;28;20046;-79
2022/04/04 01:25:44;;;;;;;9.77;5.13;;;;;;;;;;8264909;28;20050;-79
2022/04/04 01:29:47;;;;;;;10.75;5.75;;;;;;;;;;8264953;28;20053;-81
2022/04/04 01:33:49;;;;;;;14.18;5.63;;;;;;;;;;8264571;28;20478;-79
2022/04/04 01:37:52;;;;;;;11.77;5.57;;;;;;;;;;8264819;28;20050;-78
2022/04/04 01:41:56;;;;;;;10.20;5.30;;;;;;;;;;8265188;28;20549;-79
2022/04/04 01:50:26;;;;;;;12.98;6.03;;;;;;;;;;8251836;28;20054;-80
2022/04/04 01:54:29;;;;;;;12.20;5.60;;;;;;;;;;8264915;28;20050;-79
2022/04/04 01:58:33;;;;;;;15.18;6.47;;;;;;;;;;8264881;28;20043;-79
2022/04/04 02:02:37;;;;;;;14.10;5.65;;;;;;;;;;8281624;28;20500;-78
2022/04/04 02:06:40;;;;;;;13.25;5.53;;;;;;;;;;8297799;28;20474;-79
2022/04/04 02:10:44;;;;;;;9.32;5.43;;;;;;;;;;8302415;28;20069;-79
2022/04/04 02:14:48;;;;;;;11.43;5.28;;;;;;;;;;8302571;28;20054;-79
2022/04/04 02:18:51;;;;;;;15.23;6.53;;;;;;;;;;8302212;28;20052;-78
2022/04/04 02:22:53;;;;;;;16.88;5.68;;;;;;;;;;8302156;28;20486;-80
2022/04/04 02:26:56;;;;;;;14.48;6.03;;;;;;;;;;8302073;28;20049;-79
2022/04/04 02:31:00;;;;;;;15.05;6.28;;;;;;;;;;8301870;28;20056;-79
2022/04/04 02:35:03;;;;;;;12.60;6.53;;;;;;;;;;8301583;28;20061;-78
2022/04/04 02:39:05;;;;;;;10.23;5.05;;;;;;;;;;8301605;28;20057;-80
2022/04/04 02:43:09;;;;;;;14.50;6.50;;;;;;;;;;8301391;28;20046;-78
2022/04/04 02:47:13;;;;;;;9.80;5.38;;;;;;;;;;8301367;28;20045;-79
2022/04/04 02:51:16;;;;;;;13.65;6.43;;;;;;;;;;8301219;28;20045;-78
2022/04/04 02:59:38;;;;;;;12.63;6.22;;;;;;;;;;8333751;28;20477;-79
2022/04/04 03:03:42;;;;;;;12.32;6.47;;;;;;;;;;8324314;28;20477;-80
2022/04/04 03:07:45;;;;;;;10.07;5.95;;;;;;;;;;8300736;28;20041;-78
2022/04/04 03:11:48;;;;;;;11.63;6.30;;;;;;;;;;8300993;28;20444;-79
2022/04/04 03:15:50;;;;;;;12.77;6.22;;;;;;;;;;8300539;28;20054;-78
2022/04/04 03:19:54;;;;;;;14.15;6.82;;;;;;;;;;8300833;28;20457;-77
2022/04/04 03:23:59;;;;;;;14.20;6.47;;;;;;;;;;8300169;28;20054;-79
2022/04/04 03:28:01;;;;;;;10.50;6.35;;;;;;;;;;8300458;28;20120;-78
2022/04/04 03:32:05;;;;;;;11.93;6.70;;;;;;;;;;8290395;28;20490;-79
2022/04/04 03:36:09;;;;;;;14.85;6.88;;;;;;;;;;8291658;28;20062;-79
2022/04/04 03:40:13;;;;;;;17.42;8.80;;;;;;;;;;8293263;28;20054;-79
2022/04/04 03:44:16;;;;;;;12.30;5.50;;;;;;;;;;8299686;28;20042;-79
2022/04/04 03:48:19;;;;;;;14.52;7.18;;;;;;;;;;8299515;28;20056;-79
2022/04/04 03:52:23;;;;;;;14.73;6.20;;;;;;;;;;8300036;28;20100;-79
2022/04/04 03:56:26;;;;;;;16.35;7.35;;;;;;;;;;8284126;28;20050;-79
2022/04/04 04:00:29;;;;;;;17.08;6.82;;;;;;;;;;8273324;28;20057;-78
2022/04/04 04:04:32;;;;;;;11.70;5.85;;;;;;;;;;8295780;28;20462;-78
2022/04/04 04:08:36;;;;;;;13.18;7.28;;;;;;;;;;8268188;28;20046;-78
2022/04/04 04:12:39;;;;;;;11.98;6.25;;;;;;;;;;8266433;28;20479;-79
2022/04/04 04:16:42;;;;;;;12.73;6.68;;;;;;;;;;8324556;28;20049;-78
2022/04/04 04:20:45;;;;;;;15.18;7.07;;;;;;;;;;8299050;28;20070;-79
2022/04/04 04:24:49;;;;;;;14.45;6.82;;;;;;;;;;8310148;28;20042;-79
2022/04/04 04:28:52;;;;;;;14.25;5.95;;;;;;;;;;8309979;28;20092;-79
2022/04/04 04:32:55;;;;;;;15.15;6.88;;;;;;;;;;8310175;28;20056;-78
2022/04/04 04:36:57;;;;;;;12.48;6.22;;;;;;;;;;8272603;28;20144;-79
2022/04/04 04:41:01;;;;;;;14.00;6.65;;;;;;;;;;8265710;28;20057;-78
2022/04/04 04:45:06;;;;;;;12.80;5.72;;;;;;;;;;8265734;28;20046;-79
2022/04/04 04:49:10;;;;;;;14.57;6.63;;;;;;;;;;8279081;28;20405;-79
2022/04/04 04:53:13;;;;;;;12.60;6.28;;;;;;;;;;8298576;28;20050;-77
2022/04/04 04:57:18;;;;;;;17.90;7.25;;;;;;;;;;8298900;28;20060;-78
2022/04/04 05:01:21;;;;;;;14.07;6.32;;;;;;;;;;8297101;28;20046;-79
2022/04/04 05:05:24;;;;;;;13.15;6.82;;;;;;;;;;8296843;28;20042;-80
2022/04/04 05:09:26;;;;;;;17.77;7.45;;;;;;;;;;8329970;28;20052;-84
2022/04/04 05:13:30;;;;;;;11.23;6.53;;;;;;;;;;8330418;28;20050;-83
2022/04/04 05:17:34;;;;;;;13.15;6.40;;;;;;;;;;8330547;28;20052;-82
2022/04/04 05:21:36;;;;;;;15.20;6.75;;;;;;;;;;8326025;28;20057;-80
2022/04/04 05:25:39;;;;;;;15.77;6.80;;;;;;;;;;8286407;28;20046;-80
2022/04/04 05:29:43;;;;;;;14.00;6.72;;;;;;;;;;8330219;28;20045;-81
2022/04/04 05:33:46;;;;;;;15.43;8.18;;;;;;;;;;8330209;28;20092;-80
2022/04/04 05:37:54;;;;;;;13.10;7.10;;;;;;;;;;8330700;28;20079;-81
2022/04/04 05:41:57;;;;;;;14.13;6.72;;;;;;;;;;8304893;28;20046;-83
2022/04/04 05:46:01;;;;;;;12.10;6.35;;;;;;;;;;8278797;28;20054;-83
2022/04/04 05:50:07;;;;;;;12.75;6.68;;;;;;;;;;8273678;28;20045;-83
2022/04/04 05:54:10;;;;;;;14.65;6.55;;;;;;;;;;8303668;28;20101;-81
2022/04/04 05:58:13;;;;;;;13.43;6.45;;;;;;;;;;8301538;28;20042;-83
2022/04/04 06:02:19;;;;;;;18.70;7.57;;;;;;;;;;8299333;28;20046;-81
2022/04/04 06:06:21;;;;;;;15.45;8.88;;;;;;;;;;8301715;28;20121;-81
2022/04/04 06:10:24;;;;;;;16.90;8.65;;;;;;;;;;8302527;28;20062;-83
2022/04/04 06:14:26;;;;;;;17.05;8.68;;;;;;;;;;8302474;28;20046;-80
2022/04/04 06:18:31;;;;;;;20.20;10.23;;;;;;;;;;8302286;28;20050;-84
2022/04/04 06:22:36;;;;;;;26.20;11.52;;;;;;;;;;8302188;28;20053;-79
2022/04/04 06:26:39;;;;;;;14.40;8.07;;;;;;;;;;8302043;28;20077;-81
2022/04/04 06:30:42;;;;;;;16.17;7.95;;;;;;;;;;8302331;28;20478;-80
2022/04/04 06:34:47;;;;;;;17.90;8.55;;;;;;;;;;8301717;28;20509;-80
2022/04/04 06:38:50;;;;;;;22.17;10.88;;;;;;;;;;8302238;28;20196;-81
2022/04/04 06:42:52;;;;;;;16.90;9.55;;;;;;;;;;8301619;28;20500;-80
2022/04/04 06:46:56;;;;;;;14.55;8.65;;;;;;;;;;8301827;28;20107;-80
2022/04/04 06:51:01;;;;;;;14.77;8.80;;;;;;;;;;8301201;28;20444;-80
2022/04/04 06:55:06;;;;;;;23.63;9.57;;;;;;;;;;8324472;28;20401;-81
2022/04/04 06:59:09;;;;;;;20.60;10.75;;;;;;;;;;8333809;28;20049;-83
2022/04/04 07:03:12;;;;;;;15.00;8.35;;;;;;;;;;8325645;28;20050;-82
2022/04/04 07:07:17;;;;;;;14.98;8.73;;;;;;;;;;8300715;28;20046;-82
2022/04/04 07:11:20;;;;;;;14.55;8.70;;;;;;;;;;8300834;28;20402;-86
2022/04/04 07:15:23;;;;;;;15.70;8.40;;;;;;;;;;8300723;28;20046;-81
2022/04/04 07:19:32;;;;;;;17.52;8.55;;;;;;;;;;8300453;28;20124;-82
2022/04/04 07:23:36;;;;;;;17.40;9.02;;;;;;;;;;8300881;28;20458;-82
2022/04/04 07:27:41;;;;;;;17.67;8.32;;;;;;;;;;8300563;28;20049;-84
2022/04/04 07:31:44;;;;;;;14.38;9.60;;;;;;;;;;8300359;28;20050;-80
2022/04/04 07:35:47;;;;;;;18.85;9.25;;;;;;;;;;8300387;28;20145;-80
2022/04/04 07:39:51;;;;;;;19.02;9.63;;;;;;;;;;8300845;28;20049;-80
2022/04/04 07:43:54;;;;;;;21.92;9.73;;;;;;;;;;8300624;28;20053;-80
2022/04/04 07:47:57;;;;;;;18.20;10.43;;;;;;;;;;8299740;28;20050;-80
2022/04/04 07:52:00;;;;;;;20.38;10.25;;;;;;;;;;8300198;28;20458;-80
2022/04/04 07:56:05;;;;;;;25.80;11.57;;;;;;;;;;8299822;28;20057;-83
2022/04/04 08:00:10;;;;;;;15.63;9.25;;;;;;;;;;8300099;28;20073;-81
2022/04/04 08:04:13;;;;;;;19.15;9.95;;;;;;;;;;8298582;28;20050;-80
2022/04/04 08:08:17;;;;;;;21.33;9.00;;;;;;;;;;8300382;28;20091;-83
2022/04/04 08:12:21;;;;;;;22.27;11.20;;;;;;;;;;8299224;28;20401;-82
2022/04/04 08:16:26;;;;;;;22.80;11.48;;;;;;;;;;8298955;28;20137;-80
2022/04/04 08:20:29;;;;;;;19.67;9.73;;;;;;;;;;8298730;28;20050;-83
2022/04/04 08:24:31;;;;;;;16.67;9.98;;;;;;;;;;8299009;28;20046;-80
2022/04/04 08:28:36;;;;;;;17.35;9.45;;;;;;;;;;8298980;28;20062;-82
2022/04/04 08:32:39;;;;;;;19.88;10.52;;;;;;;;;;8299076;28;20501;-81
2022/04/04 08:36:42;;;;;;;21.83;12.25;;;;;;;;;;8298238;28;20054;-81
2022/04/04 08:40:46;;;;;;;20.98;11.77;;;;;;;;;;8298496;28;20046;-81
2022/04/04 08:44:53;;;;;;;19.02;9.73;;;;;;;;;;8298727;28;20118;-80
2022/04/04 08:48:58;;;;;;;22.48;12.40;;;;;;;;;;8298470;28;20046;-81
2022/04/04 08:53:02;;;;;;;19.40;10.93;;;;;;;;;;8298105;28;20053;-81
2022/04/04 08:57:05;;;;;;;19.85;11.23;;;;;;;;;;8297968;28;20505;-81
2022/04/04 09:01:10;;;;;;;18.10;11.18;;;;;;;;;;8298282;28;20466;-80
2022/04/04 09:05:14;;;;;;;17.48;11.60;;;;;;;;;;8298655;28;20411;-82
2022/04/04 09:09:22;;;;;;;20.40;12.27;;;;;;;;;;8298138;28;20046;-81
2022/04/04 09:13:27;;;;;;;21.05;12.73;;;;;;;;;;8299509;28;20493;-80
2022/04/04 09:17:33;;;;;;;19.75;11.73;;;;;;;;;;8303895;28;20564;-81
2022/04/04 09:21:38;;;;;;;16.85;10.80;;;;;;;;;;8304105;28;20414;-82
2022/04/04 09:25:41;;;;;;;20.17;12.93;;;;;;;;;;8304443;28;20401;-81
2022/04/04 09:29:45;;;;;;;18.08;10.30;;;;;;;;;;8303859;28;20092;-82
2022/04/04 09:33:50;;;;;;;18.33;10.85;;;;;;;;;;8303517;28;20132;-79
2022/04/04 09:37:54;;;;;;;18.98;11.80;;;;;;;;;;8303585;28;20486;-81
2022/04/04 09:42:00;;;;;;;20.02;12.35;;;;;;;;;;8303470;28;20252;-78
2022/04/04 09:46:11;;;;;;;16.52;12.60;;;;;;;;;;8303397;28;20043;-80
2022/04/04 09:50:35;;;;;;;21.55;13.25;;;;;;;;;;8303184;28;20048;-82
2022/04/04 09:54:43;;;;;;;19.50;11.65;;;;;;;;;;8303473;28;20057;-80
2022/04/04 09:58:47;;;;;;;16.20;10.68;;;;;;;;;;8302899;28;20041;-82
2022/04/04 10:02:51;;;;;;;18.60;11.98;;;;;;;;;;8302894;28;20081;-81
2022/04/04 10:06:56;;;;;;;16.38;10.85;;;;;;;;;;8302679;28;20096;-82
2022/04/04 10:10:59;;;;;;;18.55;10.82;;;;;;;;;;8302579;28;20524;-83
2022/04/04 10:15:03;;;;;;;17.63;11.13;;;;;;;;;;8302363;28;20049;-82
2022/04/04 10:19:06;;;;;;;16.98;10.75;;;;;;;;;;8302324;28;20073;-79
2022/04/04 10:23:14;;;;;;;19.02;10.95;;;;;;;;;;8302625;28;20054;-82
2022/04/04 10:27:20;;;;;;;20.48;12.52;;;;;;;;;;8301147;28;20461;-82
2022/04/04 10:31:26;;;;;;;16.90;9.73;;;;;;;;;;8301909;28;20050;-81
2022/04/04 10:35:30;;;;;;;16.02;9.57;;;;;;;;;;8301753;28;20536;-82
2022/04/04 10:39:44;;;;;;;15.65;9.27;;;;;;;;;;8301705;28;20405;-81
2022/04/04 10:43:48;;;;;;;19.05;10.40;;;;;;;;;;8301558;28;20053;-83
2022/04/04 10:48:04;;;;;;;15.00;10.05;;;;;;;;;;8301372;28;20046;-82
2022/04/04 10:52:10;;;;;;;18.92;11.00;;;;;;;;;;8301354;28;20191;-83
2022/04/04 10:56:18;;;;;;;36.53;16.38;;;;;;;;;;8301134;28;20080;-81
2022/04/04 11:00:32;;;;;;;14.35;9.50;;;;;;;;;;8301096;28;20423;-83
2022/04/04 11:04:36;;;;;;;13.55;9.50;;;;;;;;;;8328714;28;20041;-82
2022/04/04 11:08:38;;;;;;;13.95;8.60;;;;;;;;;;8334060;28;20125;-80
2022/04/04 11:13:08;;;;;;;14.65;10.18;;;;;;;;;;8320613;28;20410;-82
2022/04/04 11:17:33;;;;;;;14.35;8.90;;;;;;;;;;8300610;28;20042;-82
2022/04/04 11:21:43;;;;;;;12.85;8.75;;;;;;;;;;8300400;28;20069;-82
2022/04/04 11:25:52;;;;;;;18.75;11.02;;;;;;;;;;8300223;28;20406;-82
2022/04/04 11:29:59;;;;;;;12.73;7.63;;;;;;;;;;8300233;28;20042;-84
2022/04/04 11:34:02;;;;;;;13.80;9.00;;;;;;;;;;8299868;28;20502;-81
2022/04/04 11:38:07;;;;;;;15.88;8.02;;;;;;;;;;8299656;28;20046;-81
2022/04/04 11:42:10;;;;;;;14.27;8.65;;;;;;;;;;8299776;28;20042;-82
2022/04/04 11:46:19;;;;;;;12.30;8.00;;;;;;;;;;8299637;28;20140;-84
2022/04/04 11:50:26;;;;;;;12.07;7.65;;;;;;;;;;8299492;28;20053;-82
2022/04/04 11:54:40;;;;;;;14.50;8.93;;;;;;;;;;8299368;28;20054;-81
2022/04/04 11:58:51;;;;;;;12.45;7.63;;;;;;;;;;8299673;28;20045;-82
2022/04/04 12:03:04;;;;;;;11.90;7.90;;;;;;;;;;8299272;28;20046;-81
2022/04/04 12:07:10;;;;;;;11.68;7.18;;;;;;;;;;8299498;28;20050;-81
2022/04/04 12:11:14;;;;;;;12.23;7.57;;;;;;;;;;8298887;28;20049;-80
2022/04/04 12:15:26;;;;;;;14.05;7.68;;;;;;;;;;8298824;28;20069;-82
2022/04/04 12:19:31;;;;;;;16.83;10.10;;;;;;;;;;8298710;28;20520;-81
2022/04/04 12:27:59;;;;;;;13.40;8.50;;;;;;;;;;8298514;28;20053;-78
2022/04/04 12:32:03;;;;;;;12.35;7.35;;;;;;;;;;8298443;28;20046;-82
2022/04/04 12:36:08;;;;;;;12.23;8.10;;;;;;;;;;8298086;28;20141;-82
2022/04/04 12:40:16;;;;;;;13.68;7.60;;;;;;;;;;8298156;28;20056;-81
2022/04/04 12:44:21;;;;;;;11.82;7.88;;;;;;;;;;8298465;28;20108;-82
2022/04/04 12:48:33;;;;;;;15.00;8.25;;;;;;;;;;8298382;28;20046;-82
2022/04/04 12:52:57;;;;;;;14.30;7.63;;;;;;;;;;8298095;28;20054;-83
2022/04/04 12:57:02;;;;;;;12.32;7.47;;;;;;;;;;8291606;28;20046;-82
2022/04/04 13:01:12;;;;;;;12.27;6.47;;;;;;;;;;8268570;28;20054;-81
2022/04/04 13:05:18;;;;;;;12.32;6.70;;;;;;;;;;8265698;28;20486;-81
2022/04/04 13:09:26;;;;;;;12.43;7.65;;;;;;;;;;8265125;28;20057;-82
2022/04/04 13:13:30;;;;;;;10.90;6.25;;;;;;;;;;8265077;28;20046;-83
2022/04/04 13:17:36;;;;;;;10.70;6.00;;;;;;;;;;8302442;28;20069;-81
2022/04/04 13:21:40;;;;;;;10.27;5.70;;;;;;;;;;8329166;28;20041;-81
2022/04/04 13:25:45;;;;;;;9.50;6.00;;;;;;;;;;8329956;28;20080;-81
2022/04/04 13:29:49;;;;;;;9.15;5.45;;;;;;;;;;8330005;28;20042;-81
2022/04/04 13:33:54;;;;;;;10.20;6.05;;;;;;;;;;8330136;28;20137;-82
2022/04/04 13:37:58;;;;;;;6.80;4.70;;;;;;;;;;8329945;28;20053;-78
2022/04/04 13:42:06;;;;;;;7.47;4.88;;;;;;;;;;8330246;28;20482;-79
2022/04/04 13:46:10;;;;;;;8.57;4.97;;;;;;;;;;8330307;28;20402;-81
2022/04/04 13:50:13;;;;;;;12.43;6.45;;;;;;;;;;8329649;28;20099;-81
2022/04/04 13:54:16;;;;;;;10.80;5.60;;;;;;;;;;8329778;28;20045;-82
2022/04/04 13:58:22;;;;;;;9.30;6.00;;;;;;;;;;8329524;28;20475;-82
2022/04/04 14:02:27;;;;;;;10.68;6.40;;;;;;;;;;8335472;28;20116;-81
2022/04/04 14:06:30;;;;;;;11.05;5.20;;;;;;;;;;8335514;28;20103;-81
2022/04/04 14:10:35;;;;;;;9.80;6.18;;;;;;;;;;8335412;28;20517;-82
2022/04/04 14:14:40;;;;;;;10.80;6.65;;;;;;;;;;8334850;28;20084;-79
2022/04/04 14:18:44;;;;;;;11.40;6.60;;;;;;;;;;8335039;28;20049;-82
2022/04/04 14:22:49;;;;;;;8.45;5.68;;;;;;;;;;8318240;28;20126;-81
2022/04/04 14:26:53;;;;;;;10.40;5.90;;;;;;;;;;8287209;28;20520;-82
2022/04/04 14:31:07;;;;;;;20.08;9.52;;;;;;;;;;8292797;28;20042;-81
2022/04/04 14:35:18;;;;;;;16.17;9.55;;;;;;;;;;8300679;28;20057;-81
2022/04/04 14:39:43;;;;;;;10.13;5.40;;;;;;;;;;8277876;28;20074;-80
2022/04/04 14:43:54;;;;;;;20.42;9.00;;;;;;;;;;8276625;28;20484;-80
2022/04/04 14:48:51;;;;;;;28.52;12.60;;;;;;;;;;8281008;28;20050;-78
2022/04/04 14:53:01;;;;;;;15.23;7.20;;;;;;;;;;8268984;28;20046;-80
2022/04/04 14:57:27;;;;;;;23.10;8.80;;;;;;;;;;8278730;28;20041;-78
2022/04/04 15:01:50;;;;;;;26.55;11.70;;;;;;;;;;8297056;28;20120;-81
2022/04/04 15:06:05;;;;;;;14.35;6.90;;;;;;;;;;8277975;28;20048;-81
2022/04/04 15:10:23;;;;;;;23.73;11.05;;;;;;;;;;8267134;28;20055;-81
2022/04/04 15:14:39;;;;;;;19.15;8.48;;;;;;;;;;8266428;28;20043;-81
2022/04/04 15:18:51;;;;;;;14.98;7.38;;;;;;;;;;8266977;28;20414;-80
2022/04/04 15:23:00;;;;;;;17.85;8.07;;;;;;;;;;8283569;28;20072;-79
2022/04/04 15:27:18;;;;;;;27.27;11.98;;;;;;;;;;8267528;28;20406;-82
2022/04/04 15:31:37;;;;;;;23.60;9.48;;;;;;;;;;8266413;28;20050;-82
2022/04/04 15:35:54;;;;;;;25.63;10.57;;;;;;;;;;8281100;28;20058;-81
2022/04/04 15:40:04;;;;;;;11.80;8.10;;;;;;;;;;8271849;28;20046;-82
2022/04/04 15:44:16;;;;;;;13.18;7.40;;;;;;;;;;8269625;28;20050;-80
2022/04/04 15:48:29;;;;;;;24.08;11.02;;;;;;;;;;8277538;28;20046;-81
2022/04/04 15:52:41;;;;;;;28.98;16.77;;;;;;;;;;8265672;28;20046;-81
2022/04/04 15:57:11;;;;;;;39.35;16.40;;;;;;;;;;8293050;28;20049;-81
2022/04/04 16:01:38;;;;;;;13.02;8.88;;;;;;;;;;8266588;28;20557;-81
2022/04/04 16:05:51;;;;;;;27.10;14.45;;;;;;;;;;8320175;28;20128;-82
2022/04/04 16:10:01;;;;;;;12.18;7.32;;;;;;;;;;8295190;28;20073;-80
2022/04/04 16:14:10;;;;;;;13.48;8.52;;;;;;;;;;8277706;28;20459;-81
2022/04/04 16:18:14;;;;;;;16.17;9.50;;;;;;;;;;8292661;28;20495;-80
2022/04/04 16:22:19;;;;;;;12.35;7.03;;;;;;;;;;8313532;28;20042;-80
2022/04/04 16:26:25;;;;;;;19.17;10.63;;;;;;;;;;8287181;28;20042;-80
2022/04/04 16:30:45;;;;;;;14.85;8.95;;;;;;;;;;8298483;28;20137;-80
2022/04/04 16:35:00;;;;;;;13.60;7.72;;;;;;;;;;8296635;28;20112;-79
2022/04/04 16:39:15;;;;;;;19.98;10.20;;;;;;;;;;8298309;28;20049;-87
2022/04/04 16:43:29;;;;;;;44.85;21.05;;;;;;;;;;8291637;28;20485;-82
2022/04/04 16:48:25;;;;;;;;;;;;;;;;;;8298637;28;20046;-81
2022/04/04 16:53:02;;;;;;;58.35;21.02;;;;;;;;;;8298570;28;19949;-79
2022/04/04 16:57:46;;;;;;;16.52;9.35;;;;;;;;;;8297986;28;20048;-80
2022/04/04 17:01:56;;;;;;;68.07;27.30;;;;;;;;;;8292884;28;20046;-81
2022/04/04 17:06:14;;;;;;;34.65;19.75;;;;;;;;;;8297965;28;20045;-86
2022/04/04 17:10:25;;;;;;;27.38;13.20;;;;;;;;;;8268255;28;20060;-83
2022/04/04 17:14:34;;;;;;;16.27;8.48;;;;;;;;;;8263692;28;20043;-89
2022/04/04 17:18:52;;;;;;;10.77;6.40;;;;;;;;;;8263987;28;20386;-88
2022/04/04 17:23:03;;;;;;;9.00;6.43;;;;;;;;;;8263722;28;20046;-89
2022/04/04 17:27:11;;;;;;;11.30;6.90;;;;;;;;;;8263561;28;20049;-82
2022/04/04 17:31:16;;;;;;;13.10;7.18;;;;;;;;;;8264261;28;20050;-81
2022/04/04 17:35:19;;;;;;;17.77;10.98;;;;;;;;;;8266551;28;20053;-80
2022/04/04 17:40:01;;;;;;;19.70;13.40;;;;;;;;;;8271822;28;20053;-85
2022/04/04 17:44:10;;;;;;;18.48;10.55;;;;;;;;;;8272235;28;20100;-80
2022/04/04 17:48:17;;;;;;;11.32;5.93;;;;;;;;;;8268854;28;20054;-90
2022/04/04 17:52:21;;;;;;;11.23;6.00;;;;;;;;;;8268837;28;20100;-81
2022/04/04 17:56:29;;;;;;;9.30;6.13;;;;;;;;;;8268918;28;20057;-79
2022/04/04 18:00:33;;;;;;;10.60;5.32;;;;;;;;;;8268402;28;20130;-80
2022/04/04 18:04:55;;;;;;;11.10;5.78;;;;;;;;;;8268690;28;20126;-79
2022/04/04 18:08:59;;;;;;;12.60;7.25;;;;;;;;;;8269160;28;20541;-79
2022/04/04 18:13:04;;;;;;;9.82;5.88;;;;;;;;;;8268332;28;20050;-83
2022/04/04 18:17:08;;;;;;;31.25;19.00;;;;;;;;;;8268358;28;20482;-81
2022/04/04 18:21:12;;;;;;;13.88;7.72;;;;;;;;;;8268035;28;20081;-81
2022/04/04 18:25:18;;;;;;;11.52;6.07;;;;;;;;;;8268153;28;20088;-81
2022/04/04 18:29:25;;;;;;;17.35;7.88;;;;;;;;;;8285671;28;20038;-84
2022/04/04 18:33:28;;;;;;;13.55;6.38;;;;;;;;;;8295961;28;20112;-80
2022/04/04 18:37:35;;;;;;;16.33;7.93;;;;;;;;;;8293097;28;20061;-82
2022/04/04 18:41:38;;;;;;;11.57;5.75;;;;;;;;;;8302278;28;20050;-78
2022/04/04 18:45:42;;;;;;;11.20;6.05;;;;;;;;;;8290493;28;20042;-81
2022/04/04 18:49:45;;;;;;;13.27;6.75;;;;;;;;;;8293549;28;20042;-80
2022/04/04 18:53:48;;;;;;;17.35;7.78;;;;;;;;;;8294113;28;20049;-86
2022/04/04 18:57:52;;;;;;;37.88;15.07;;;;;;;;;;8297730;28;20068;-83
2022/04/04 19:01:59;;;;;;;31.02;12.18;;;;;;;;;;8283760;28;20485;-85
2022/04/04 19:06:02;;;;;;;21.45;11.13;;;;;;;;;;8284710;28;20049;-79
2022/04/04 19:10:08;;;;;;;19.55;10.60;;;;;;;;;;8287994;28;20383;-82
2022/04/04 19:14:11;;;;;;;14.05;7.43;;;;;;;;;;8303963;28;20045;-87
2022/04/04 19:18:15;;;;;;;9.90;5.82;;;;;;;;;;8333327;28;20049;-80
2022/04/04 19:22:19;;;;;;;11.65;6.40;;;;;;;;;;8298932;28;20046;-81
2022/04/04 19:26:22;;;;;;;12.13;6.65;;;;;;;;;;8290901;28;20056;-79
2022/04/04 19:30:26;;;;;;;13.82;6.57;;;;;;;;;;8287573;28;20064;-80
2022/04/04 19:34:35;;;;;;;13.38;6.45;;;;;;;;;;8288731;28;20054;-81
2022/04/04 19:38:40;;;;;;;13.37;6.63;;;;;;;;;;8324963;28;20049;-80
2022/04/04 19:42:43;;;;;;;12.68;6.93;;;;;;;;;;8332431;28;20056;-81
2022/04/04 19:46:47;;;;;;;13.50;6.57;;;;;;;;;;8290149;28;20047;-79
2022/04/04 19:50:52;;;;;;;11.05;6.13;;;;;;;;;;8286815;28;20046;-81
2022/04/04 19:54:58;;;;;;;14.93;6.75;;;;;;;;;;8281895;28;20092;-80
2022/04/04 19:59:03;;;;;;;13.63;6.72;;;;;;;;;;8289370;28;20049;-81
2022/04/04 20:03:06;;;;;;;13.02;6.45;;;;;;;;;;8287143;28;20425;-79
2022/04/04 20:07:14;;;;;;;13.07;7.13;;;;;;;;;;8291926;28;20478;-80
2022/04/04 20:11:18;;;;;;;14.35;6.95;;;;;;;;;;8289529;28;20050;-81
2022/04/04 20:15:21;;;;;;;15.13;6.68;;;;;;;;;;8292963;28;20096;-81
2022/04/04 20:19:24;;;;;;;13.50;7.00;;;;;;;;;;8265787;28;20049;-82
2022/04/04 20:23:29;;;;;;;13.65;6.75;;;;;;;;;;8265356;28;20133;-80
2022/04/04 20:27:33;;;;;;;15.80;6.90;;;;;;;;;;8265957;28;20042;-80
2022/04/04 20:31:36;;;;;;;11.45;5.95;;;;;;;;;;8266173;28;20077;-82
2022/04/04 20:35:40;;;;;;;13.65;6.20;;;;;;;;;;8265979;28;20050;-79
2022/04/04 20:39:45;;;;;;;12.60;6.50;;;;;;;;;;8265849;28;20581;-79
2022/04/04 20:43:48;;;;;;;14.45;7.30;;;;;;;;;;8265863;28;20050;-80
2022/04/04 20:47:51;;;;;;;12.48;6.97;;;;;;;;;;8265714;28;20049;-81
2022/04/04 20:51:54;;;;;;;14.40;6.97;;;;;;;;;;8265604;28;20054;-81
2022/04/04 20:55:58;;;;;;;13.10;6.25;;;;;;;;;;8265531;28;20046;-80
2022/04/04 21:00:01;;;;;;;11.98;6.97;;;;;;;;;;8265854;28;20181;-80
2022/04/04 21:04:03;;;;;;;14.45;6.90;;;;;;;;;;8265782;28;20047;-81
2022/04/04 21:08:07;;;;;;;13.75;6.93;;;;;;;;;;8265704;28;20058;-81
2022/04/04 21:12:11;;;;;;;11.27;6.10;;;;;;;;;;8271628;28;20441;-80
2022/04/04 21:16:13;;;;;;;11.43;6.40;;;;;;;;;;8271943;28;20061;-77
2022/04/04 21:20:16;;;;;;;12.25;6.13;;;;;;;;;;8271676;28;20516;-80
2022/04/04 21:24:19;;;;;;;8.32;5.07;;;;;;;;;;8271805;28;20050;-79
2022/04/04 21:28:23;;;;;;;10.85;6.53;;;;;;;;;;8271672;28;20046;-80
2022/04/04 21:32:27;;;;;;;10.93;6.25;;;;;;;;;;8271919;28;20177;-80
2022/04/04 21:36:29;;;;;;;14.02;6.80;;;;;;;;;;8271227;28;20116;-81
2022/04/04 21:40:32;;;;;;;11.27;5.97;;;;;;;;;;8271599;28;20405;-79
2022/04/04 21:44:36;;;;;;;11.50;5.75;;;;;;;;;;8271525;28;20050;-81
2022/04/04 21:48:39;;;;;;;12.73;6.40;;;;;;;;;;8270979;28;20051;-83
2022/04/04 21:52:42;;;;;;;9.60;5.90;;;;;;;;;;8271428;28;20500;-80
2022/04/04 21:56:44;;;;;;;10.30;5.80;;;;;;;;;;8270733;28;20095;-80
2022/04/04 22:00:49;;;;;;;11.88;6.38;;;;;;;;;;8271054;28;20053;-80
2022/04/04 22:04:52;;;;;;;10.93;5.82;;;;;;;;;;8270553;28;20053;-80
2022/04/04 22:08:54;;;;;;;12.68;6.75;;;;;;;;;;8270876;28;20505;-79
2022/04/04 22:12:58;;;;;;;12.40;5.47;;;;;;;;;;8270326;28;20046;-81
2022/04/04 22:17:02;;;;;;;9.15;5.72;;;;;;;;;;8270659;28;20478;-79
2022/04/04 22:21:05;;;;;;;9.10;5.78;;;;;;;;;;8269123;28;20088;-81
2022/04/04 22:25:09;;;;;;;11.05;5.75;;;;;;;;;;8269817;28;20046;-81
2022/04/04 22:29:12;;;;;;;10.32;5.80;;;;;;;;;;8269755;28;20405;-80
2022/04/04 22:33:16;;;;;;;9.38;5.55;;;;;;;;;;8269686;28;20493;-81
2022/04/04 22:37:19;;;;;;;12.98;5.95;;;;;;;;;;8269293;28;20050;-81
2022/04/04 22:41:22;;;;;;;11.68;5.70;;;;;;;;;;8269532;28;20150;-81
2022/04/04 22:45:25;;;;;;;8.90;5.82;;;;;;;;;;8269417;28;20125;-80
2022/04/04 22:49:28;;;;;;;9.05;5.47;;;;;;;;;;8269312;28;20049;-81
2022/04/04 22:53:31;;;;;;;9.75;6.28;;;;;;;;;;8290539;28;20473;-81
2022/04/04 22:57:34;;;;;;;9.23;5.70;;;;;;;;;;8335710;28;20041;-80
2022/04/04 23:01:36;;;;;;;10.27;6.25;;;;;;;;;;8335508;28;20041;-84
2022/04/04 23:05:40;;;;;;;8.25;5.53;;;;;;;;;;8279726;28;20066;-89
2022/04/04 23:09:45;;;;;;;10.23;6.18;;;;;;;;;;8270192;28;20042;-81
2022/04/04 23:13:47;;;;;;;12.18;5.93;;;;;;;;;;8270115;28;20046;-80
2022/04/04 23:17:53;;;;;;;11.70;5.93;;;;;;;;;;8269942;28;20046;-83
2022/04/04 23:21:57;;;;;;;13.43;6.60;;;;;;;;;;8270157;28;20054;-81
2022/04/04 23:26:00;;;;;;;13.40;6.32;;;;;;;;;;8269431;28;20057;-83
2022/04/04 23:30:02;;;;;;;11.13;6.18;;;;;;;;;;8269441;28;20046;-84
2022/04/04 23:34:05;;;;;;;8.70;5.85;;;;;;;;;;8268969;28;20125;-82
2022/04/04 23:38:09;;;;;;;10.38;6.20;;;;;;;;;;8268280;28;20042;-84
2022/04/04 23:42:12;;;;;;;9.77;6.03;;;;;;;;;;8268686;28;20065;-86
2022/04/04 23:46:14;;;;;;;12.02;6.05;;;;;;;;;;8268527;28;20058;-79
2022/04/04 23:50:17;;;;;;;12.15;6.35;;;;;;;;;;8268127;28;20048;-82
2022/04/04 23:54:21;;;;;;;12.23;6.07;;;;;;;;;;8268803;28;20042;-80
2022/04/04 23:58:23;;;;;;;12.05;6.93;;;;;;;;;;8269398;28;20057;-86
